createdAt,value
2023-01-27T00:00:57.182Z,14.30
2023-01-27T00:03:25.623Z,22.03
2023-01-27T00:05:53.203Z,17.63
2023-01-27T00:08:21.409Z,20.73
2023-01-27T00:11:09.060Z,22.33
2023-01-27T00:13:35.675Z,17.93
2023-01-27T00:16:04.733Z,17.90
2023-01-27T00:18:32.259Z,17.10
2023-01-27T00:21:17.591Z,20.60
2023-01-27T00:24:02.788Z,16.93
2023-01-27T00:26:30.312Z,16.30
2023-01-27T00:28:57.871Z,19.57
2023-01-27T00:31:44.264Z,20.13
2023-01-27T00:34:11.834Z,22.10
2023-01-27T00:36:41.830Z,17.30
2023-01-27T00:39:11.240Z,23.50
2023-01-27T00:41:40.026Z,16.30
2023-01-27T00:44:12.660Z,19.67
2023-01-27T00:46:42.261Z,17.43
2023-01-27T00:49:10.823Z,18.07
2023-01-27T00:51:38.360Z,16.83
2023-01-27T00:54:06.249Z,15.70
2023-01-27T00:56:34.355Z,16.17
2023-01-27T00:59:01.976Z,19.03
2023-01-27T01:01:29.997Z,16.20
2023-01-27T01:03:59.698Z,20.73
2023-01-27T01:06:28.028Z,18.43
2023-01-27T01:08:57.386Z,11.07
2023-01-27T01:11:25.896Z,11.70
2023-01-27T01:13:56.085Z,14.13
2023-01-27T01:16:25.526Z,12.90
2023-01-27T01:18:53.119Z,12.90
2023-01-27T01:21:22.833Z,16.63
2023-01-27T01:23:50.460Z,16.33
2023-01-27T01:26:19.023Z,11.33
2023-01-27T01:28:47.547Z,13.00
2023-01-27T01:31:17.046Z,12.07
2023-01-27T01:33:44.645Z,14.10
2023-01-27T01:36:14.611Z,11.40
2023-01-27T01:38:43.823Z,17.00
2023-01-27T01:41:13.680Z,14.10
2023-01-27T01:43:41.387Z,16.87
2023-01-27T01:46:10.892Z,9.30
2023-01-27T01:48:42.498Z,12.10
2023-01-27T01:51:13.934Z,11.60
2023-01-27T01:53:48.573Z,14.37
2023-01-27T01:56:20.552Z,13.63
2023-01-27T01:58:49.658Z,12.43
2023-01-27T02:01:18.975Z,10.83
2023-01-27T02:03:51.844Z,12.63
2023-01-27T02:06:19.776Z,12.93
2023-01-27T02:08:51.539Z,9.63
2023-01-27T02:11:19.250Z,10.80
2023-01-27T02:13:47.365Z,16.13
2023-01-27T02:16:15.152Z,11.10
2023-01-27T02:18:43.916Z,11.97
2023-01-27T02:21:11.502Z,7.97
2023-01-27T02:23:57.880Z,14.30
2023-01-27T02:26:30.660Z,12.30
2023-01-27T02:29:00.947Z,9.57
2023-01-27T02:31:28.770Z,9.20
2023-01-27T02:34:00.675Z,10.80
2023-01-27T02:36:31.752Z,7.37
2023-01-27T02:39:02.709Z,9.80
2023-01-27T02:41:35.980Z,8.17
2023-01-27T02:44:04.756Z,10.00
2023-01-27T02:46:33.470Z,7.17
2023-01-27T02:49:01.363Z,5.93
2023-01-27T02:51:30.458Z,8.60
2023-01-27T02:53:59.882Z,5.67
2023-01-27T02:56:27.977Z,10.90
2023-01-27T02:58:58.911Z,12.30
2023-01-27T03:01:33.310Z,16.07
2023-01-27T03:04:02.120Z,10.30
2023-01-27T03:06:29.783Z,7.63
2023-01-27T03:08:57.356Z,7.50
2023-01-27T03:11:38.808Z,6.30
2023-01-27T03:14:10.681Z,10.33
2023-01-27T03:16:57.387Z,7.20
2023-01-27T03:19:26.658Z,11.63
2023-01-27T03:21:54.237Z,9.93
2023-01-27T03:24:22.904Z,8.60
2023-01-27T03:26:52.159Z,7.17
2023-01-27T03:29:44.275Z,8.53
2023-01-27T03:32:11.886Z,8.97
2023-01-27T03:34:39.893Z,5.80
2023-01-27T03:37:31.368Z,6.07
2023-01-27T03:40:16.929Z,7.60
2023-01-27T03:43:02.454Z,5.97
2023-01-27T03:45:49.207Z,8.10
2023-01-27T03:48:18.438Z,7.87
2023-01-27T03:50:52.887Z,9.57
2023-01-27T03:53:20.770Z,8.00
2023-01-27T03:55:48.882Z,7.53
2023-01-27T03:58:20.785Z,4.60
2023-01-27T04:00:51.527Z,7.53
2023-01-27T04:03:37.356Z,6.30
2023-01-27T04:06:23.309Z,6.67
2023-01-27T04:08:50.782Z,8.87
2023-01-27T04:11:36.125Z,6.40
2023-01-27T04:14:04.329Z,8.30
2023-01-27T04:16:34.377Z,5.80
2023-01-27T04:19:01.917Z,7.07
2023-01-27T04:21:29.983Z,9.60
2023-01-27T04:23:57.565Z,5.57
2023-01-27T04:26:25.357Z,5.10
2023-01-27T04:28:53.091Z,4.70
2023-01-27T04:31:20.576Z,6.60
2023-01-27T04:33:49.507Z,4.47
2023-01-27T04:36:17.418Z,6.97
2023-01-27T04:38:44.961Z,5.03
2023-01-27T04:41:12.513Z,4.67
2023-01-27T04:43:40.004Z,8.10
2023-01-27T04:46:07.823Z,5.07
2023-01-27T04:48:35.655Z,4.60
2023-01-27T04:51:04.868Z,3.60
2023-01-27T04:53:32.343Z,9.30
2023-01-27T04:56:03.670Z,3.40
2023-01-27T04:58:31.142Z,3.50
2023-01-27T05:00:58.736Z,6.43
2023-01-27T05:03:26.626Z,3.53
2023-01-27T05:05:54.103Z,2.80
2023-01-27T05:08:22.879Z,4.83
2023-01-27T05:10:52.455Z,2.87
2023-01-27T05:13:20.220Z,2.97
2023-01-27T05:15:48.019Z,5.30
2023-01-27T05:18:15.628Z,3.40
2023-01-27T05:20:43.118Z,3.27
2023-01-27T05:23:27.886Z,2.87
2023-01-27T05:25:56.739Z,3.17
2023-01-27T05:28:24.306Z,3.13
2023-01-27T05:30:51.797Z,3.90
2023-01-27T05:33:19.263Z,2.20
2023-01-27T05:35:46.766Z,2.60
2023-01-27T05:38:14.232Z,8.90
2023-01-27T05:40:41.756Z,2.83
2023-01-27T05:43:10.556Z,2.50
2023-01-27T05:45:38.490Z,3.90
2023-01-27T05:48:06.428Z,2.53
2023-01-27T05:50:33.927Z,3.03
2023-01-27T05:53:01.366Z,2.10
2023-01-27T05:55:28.819Z,2.33
2023-01-27T05:57:56.263Z,2.30
2023-01-27T06:00:25.278Z,2.53
2023-01-27T06:02:52.859Z,2.20
2023-01-27T06:05:20.370Z,3.73
2023-01-27T06:07:47.841Z,1.60
2023-01-27T06:10:15.339Z,1.67
2023-01-27T06:12:42.902Z,1.70
2023-01-27T06:15:12.010Z,1.70
2023-01-27T06:17:41.440Z,2.67
2023-01-27T06:20:10.517Z,1.50
2023-01-27T06:22:38.031Z,1.70
2023-01-27T06:25:06.214Z,1.40
2023-01-27T06:27:33.885Z,2.73
2023-01-27T06:30:01.669Z,1.50
2023-01-27T06:32:29.148Z,1.20
2023-01-27T06:34:58.250Z,1.53
2023-01-27T06:37:25.778Z,1.20
2023-01-27T06:39:53.297Z,1.30
2023-01-27T06:42:20.780Z,0.93
2023-01-27T06:44:48.257Z,1.50
2023-01-27T06:47:15.734Z,1.10
2023-01-27T06:49:43.360Z,1.20
2023-01-27T06:52:12.170Z,1.30
2023-01-27T06:54:39.722Z,1.57
2023-01-27T06:57:10.148Z,1.63
2023-01-27T06:59:37.709Z,1.30
2023-01-27T07:02:05.221Z,1.27
2023-01-27T07:04:32.867Z,1.57
2023-01-27T07:07:00.283Z,1.07
2023-01-27T07:09:29.895Z,1.50
2023-01-27T07:11:59.618Z,1.10
2023-01-27T07:14:27.119Z,8.93
2023-01-27T07:16:54.962Z,1.27
2023-01-27T07:19:22.445Z,3.03
2023-01-27T07:21:49.924Z,1.40
2023-01-27T07:24:17.493Z,1.50
2023-01-27T07:26:47.387Z,1.30
2023-01-27T07:29:14.915Z,1.20
2023-01-27T07:31:42.422Z,1.60
2023-01-27T07:34:10.093Z,1.27
2023-01-27T07:36:37.639Z,1.63
2023-01-27T07:39:06.421Z,6.20
2023-01-27T07:41:33.904Z,1.50
2023-01-27T07:44:04.184Z,1.57
2023-01-27T07:46:34.051Z,1.57
2023-01-27T07:49:01.518Z,2.43
2023-01-27T07:51:29.010Z,2.33
2023-01-27T07:53:56.557Z,2.20
2023-01-27T07:56:24.078Z,1.53
2023-01-27T07:58:55.171Z,1.30
2023-01-27T08:01:24.120Z,1.40
2023-01-27T08:03:51.645Z,1.70
2023-01-27T08:06:19.148Z,4.67
2023-01-27T08:08:46.714Z,0.90
2023-01-27T08:11:15.812Z,1.40
2023-01-27T08:13:43.446Z,1.33
2023-01-27T08:16:14.316Z,2.13
2023-01-27T08:18:43.359Z,1.83
2023-01-27T08:21:12.559Z,5.10
2023-01-27T08:23:40.345Z,0.90
2023-01-27T08:26:08.307Z,1.43
2023-01-27T08:28:37.647Z,1.53
2023-01-27T08:31:06.406Z,1.87
2023-01-27T08:33:34.181Z,1.70
2023-01-27T08:36:08.503Z,1.80
2023-01-27T08:38:37.482Z,1.10
2023-01-27T08:41:06.738Z,1.20
2023-01-27T08:43:34.383Z,1.87
2023-01-27T08:46:01.959Z,1.70
2023-01-27T08:48:31.003Z,1.40
2023-01-27T08:50:58.967Z,1.50
2023-01-27T08:53:28.636Z,1.53
2023-01-27T08:55:58.495Z,1.37
2023-01-27T08:58:26.255Z,0.90
2023-01-27T09:01:01.188Z,1.70
2023-01-27T09:03:28.775Z,3.50
2023-01-27T09:05:56.267Z,1.20
2023-01-27T09:08:23.768Z,1.57
2023-01-27T09:10:52.789Z,2.40
2023-01-27T09:13:22.205Z,1.10
2023-01-27T09:15:52.444Z,1.33
2023-01-27T09:18:20.090Z,1.40
2023-01-27T09:20:47.600Z,1.60
2023-01-27T09:23:15.066Z,1.30
2023-01-27T09:25:42.545Z,1.63
2023-01-27T09:28:16.983Z,2.43
2023-01-27T09:30:46.367Z,4.97
2023-01-27T09:33:17.335Z,1.40
2023-01-27T09:35:47.504Z,1.40
2023-01-27T09:38:20.175Z,1.60
2023-01-27T09:41:13.994Z,2.13
2023-01-27T09:44:09.557Z,1.80
2023-01-27T09:46:54.705Z,2.63
2023-01-27T09:49:39.483Z,1.60
2023-01-27T09:52:23.798Z,1.60
2023-01-27T09:55:03.879Z,1.93
2023-01-27T09:57:44.700Z,2.13
2023-01-27T10:00:32.469Z,3.30
2023-01-27T10:03:43.326Z,9.50
2023-01-27T10:06:30.298Z,4.17
2023-01-27T10:09:12.830Z,2.50
2023-01-27T10:11:49.790Z,4.27
2023-01-27T10:14:29.765Z,3.70
2023-01-27T10:17:11.086Z,5.83
2023-01-27T10:20:00.372Z,2.90
2023-01-27T10:22:38.733Z,11.43
2023-01-27T10:25:23.082Z,18.00
2023-01-27T10:27:57.164Z,14.07
2023-01-27T10:30:32.264Z,8.23
2023-01-27T10:33:12.689Z,3.53
2023-01-27T10:35:51.319Z,6.17
2023-01-27T10:38:33.305Z,5.27
2023-01-27T10:41:10.207Z,7.50
2023-01-27T10:43:50.947Z,3.73
2023-01-27T10:46:30.679Z,9.93
2023-01-27T10:49:05.634Z,16.50
2023-01-27T10:51:36.663Z,12.13
2023-01-27T10:54:10.966Z,6.20
2023-01-27T10:56:42.610Z,19.60
2023-01-27T10:59:17.602Z,21.37
2023-01-27T11:01:50.870Z,14.53
2023-01-27T11:04:35.319Z,5.80
2023-01-27T11:07:04.886Z,4.80
2023-01-27T11:09:35.566Z,7.03
2023-01-27T11:12:06.945Z,4.23
2023-01-27T11:14:44.817Z,11.57
2023-01-27T11:17:18.157Z,5.30
2023-01-27T11:19:58.254Z,9.33
2023-01-27T11:22:36.220Z,3.00
2023-01-27T11:25:07.386Z,5.33
2023-01-27T11:27:54.708Z,1.20
2023-01-27T11:30:28.314Z,1.47
2023-01-27T11:33:05.895Z,6.43
2023-01-27T11:35:34.761Z,5.13
2023-01-27T11:38:15.462Z,4.20
2023-01-27T11:40:45.410Z,1.47
2023-01-27T11:43:17.900Z,0.80
2023-01-27T11:45:47.185Z,3.13
2023-01-27T11:48:18.944Z,1.43
2023-01-27T11:50:47.958Z,1.23
2023-01-27T11:53:20.991Z,1.30
2023-01-27T11:55:55.114Z,1.30
2023-01-27T11:58:26.237Z,1.07
2023-01-27T12:00:57.806Z,1.93
2023-01-27T12:03:35.465Z,1.47
2023-01-27T12:06:12.489Z,1.30
2023-01-27T12:08:43.876Z,1.87
2023-01-27T12:11:26.262Z,1.57
2023-01-27T12:13:57.022Z,1.40
2023-01-27T12:16:30.279Z,21.53
2023-01-27T12:19:02.518Z,2.27
2023-01-27T12:21:45.940Z,1.13
2023-01-27T12:24:25.692Z,2.30
2023-01-27T12:26:54.393Z,2.87
2023-01-27T12:29:27.285Z,4.10
2023-01-27T12:31:58.119Z,1.97
2023-01-27T12:34:30.319Z,3.77
2023-01-27T12:36:59.697Z,1.93
2023-01-27T12:39:43.460Z,2.63
2023-01-27T12:42:36.332Z,3.70
2023-01-27T12:45:21.511Z,3.30
2023-01-27T12:48:15.917Z,5.00
2023-01-27T12:50:54.085Z,2.37
2023-01-27T12:53:27.460Z,4.50
2023-01-27T12:55:59.820Z,5.30
2023-01-27T12:58:34.553Z,6.60
2023-01-27T13:01:06.280Z,3.23
2023-01-27T13:03:39.906Z,3.03
2023-01-27T13:06:08.224Z,3.07
2023-01-27T13:08:41.349Z,6.27
2023-01-27T13:11:09.260Z,6.87
2023-01-27T13:13:36.842Z,2.53
2023-01-27T13:16:09.251Z,4.03
2023-01-27T13:18:40.690Z,2.90
2023-01-27T13:21:15.486Z,3.57
2023-01-27T13:23:46.683Z,4.97
2023-01-27T13:26:18.497Z,3.10
2023-01-27T13:28:53.527Z,5.57
2023-01-27T13:31:30.679Z,6.53
2023-01-27T13:34:03.440Z,3.10
2023-01-27T13:36:38.563Z,3.23
2023-01-27T13:39:15.678Z,3.23
2023-01-27T13:41:47.576Z,4.90
2023-01-27T13:44:22.262Z,3.63
2023-01-27T13:46:51.292Z,1.73
2023-01-27T13:49:29.828Z,2.30
2023-01-27T13:51:57.385Z,2.00
2023-01-27T13:54:26.332Z,2.60
2023-01-27T13:57:19.099Z,2.83
2023-01-27T13:59:56.283Z,3.10
2023-01-27T14:02:40.872Z,3.37
2023-01-27T14:05:26.294Z,3.33
2023-01-27T14:08:03.702Z,4.53
2023-01-27T14:10:36.991Z,3.03
2023-01-27T14:13:20.519Z,2.10
2023-01-27T14:15:54.879Z,2.33
2023-01-27T14:18:24.904Z,1.70
2023-01-27T14:21:03.741Z,2.93
2023-01-27T14:23:43.007Z,6.70
2023-01-27T14:26:27.634Z,4.93
2023-01-27T14:29:07.257Z,7.07
2023-01-27T14:31:45.489Z,6.20
2023-01-27T14:34:32.520Z,5.00
2023-01-27T14:37:08.106Z,1.43
2023-01-27T14:39:42.563Z,2.00
2023-01-27T14:42:18.425Z,1.87
2023-01-27T14:45:03.013Z,2.63
2023-01-27T14:47:39.392Z,2.00
2023-01-27T14:50:20.018Z,1.90
2023-01-27T14:52:58.831Z,2.40
2023-01-27T14:55:35.848Z,4.00
2023-01-27T14:58:29.180Z,2.17
2023-01-27T15:01:08.842Z,1.50
2023-01-27T15:03:52.375Z,6.43
2023-01-27T15:06:29.521Z,2.30
2023-01-27T15:09:04.574Z,2.57
2023-01-27T15:11:45.774Z,3.43
2023-01-27T15:14:38.341Z,1.77
2023-01-27T15:17:22.047Z,1.43
2023-01-27T15:20:07.465Z,1.23
2023-01-27T15:22:48.490Z,2.50
2023-01-27T15:25:30.936Z,1.40
2023-01-27T15:27:59.364Z,2.37
2023-01-27T15:30:30.585Z,0.97
2023-01-27T15:32:58.444Z,3.67
2023-01-27T15:35:38.148Z,1.10
2023-01-27T15:38:32.514Z,1.60
2023-01-27T15:41:04.622Z,1.33
2023-01-27T15:43:33.255Z,9.93
2023-01-27T15:46:23.192Z,8.90
2023-01-27T15:48:50.973Z,3.20
2023-01-27T15:51:20.666Z,3.03
2023-01-27T15:53:52.243Z,2.20
2023-01-27T15:56:19.906Z,1.30
2023-01-27T15:58:54.398Z,1.40
2023-01-27T16:01:28.318Z,9.13
2023-01-27T16:04:07.748Z,1.50
2023-01-27T16:06:36.158Z,1.00
2023-01-27T16:09:06.510Z,2.90
2023-01-27T16:11:43.596Z,1.30
2023-01-27T16:14:38.333Z,1.00
2023-01-27T16:17:18.608Z,1.40
2023-01-27T16:19:53.311Z,4.13
2023-01-27T16:22:23.474Z,2.33
2023-01-27T16:24:56.746Z,14.87
2023-01-27T16:27:37.262Z,5.90
2023-01-27T16:30:15.553Z,3.40
2023-01-27T16:32:55.035Z,2.80
2023-01-27T16:35:22.996Z,6.77
2023-01-27T16:38:03.194Z,4.13
2023-01-27T16:40:34.118Z,2.30
2023-01-27T16:43:07.101Z,3.67
2023-01-27T16:45:44.195Z,2.93
2023-01-27T16:48:22.484Z,3.03
2023-01-27T16:50:50.791Z,2.67
2023-01-27T16:53:20.373Z,1.97
2023-01-27T16:55:58.543Z,3.50
2023-01-27T16:58:39.743Z,2.53
2023-01-27T17:01:21.660Z,2.57
2023-01-27T17:03:53.802Z,1.87
2023-01-27T17:06:22.335Z,1.40
2023-01-27T17:08:50.532Z,2.20
2023-01-27T17:11:22.291Z,4.97
2023-01-27T17:13:54.756Z,9.10
2023-01-27T17:16:27.071Z,2.00
2023-01-27T17:19:02.029Z,18.60
2023-01-27T17:21:33.306Z,4.80
2023-01-27T17:24:11.727Z,2.50
2023-01-27T17:26:39.718Z,5.80
2023-01-27T17:29:07.559Z,22.33
2023-01-27T17:31:39.205Z,34.40
2023-01-27T17:34:16.702Z,4.83
2023-01-27T17:37:09.110Z,4.20
2023-01-27T17:39:39.380Z,1.30
2023-01-27T17:42:07.294Z,2.00
2023-01-27T17:44:35.416Z,5.60
2023-01-27T17:47:03.506Z,2.30
2023-01-27T17:49:33.210Z,2.63
2023-01-27T17:52:02.159Z,3.10
2023-01-27T17:54:32.484Z,4.83
2023-01-27T17:57:05.159Z,8.20
2023-01-27T17:59:33.527Z,9.07
2023-01-27T18:02:06.263Z,3.17
2023-01-27T18:04:41.424Z,4.73
2023-01-27T18:07:10.596Z,2.93
2023-01-27T18:09:44.952Z,4.50
2023-01-27T18:12:29.736Z,6.13
2023-01-27T18:14:57.341Z,2.07
2023-01-27T18:17:27.615Z,3.60
2023-01-27T18:19:57.595Z,2.13
2023-01-27T18:22:27.061Z,4.70
2023-01-27T18:24:57.752Z,1.80
2023-01-27T18:27:28.712Z,6.17
2023-01-27T18:30:02.103Z,2.97
2023-01-27T18:32:38.890Z,4.03
2023-01-27T18:35:24.637Z,14.30
2023-01-27T18:37:54.872Z,2.20
2023-01-27T18:40:27.564Z,21.00
2023-01-27T18:42:56.088Z,4.30
2023-01-27T18:45:23.805Z,4.37
2023-01-27T18:47:51.505Z,20.70
2023-01-27T18:50:22.232Z,9.67
2023-01-27T18:52:50.910Z,8.00
2023-01-27T18:55:20.723Z,2.80
2023-01-27T18:57:50.084Z,2.63
2023-01-27T19:00:19.864Z,5.53
2023-01-27T19:02:49.900Z,2.83
2023-01-27T19:05:21.267Z,6.17
2023-01-27T19:07:49.358Z,11.13
2023-01-27T19:10:19.651Z,4.77
2023-01-27T19:12:47.488Z,4.57
2023-01-27T19:15:16.625Z,20.63
2023-01-27T19:17:48.697Z,12.23
2023-01-27T19:20:21.340Z,47.07
2023-01-27T19:22:50.750Z,5.10
2023-01-27T19:25:18.217Z,14.40
2023-01-27T19:27:49.792Z,9.00
2023-01-27T19:30:24.957Z,23.00
2023-01-27T19:32:53.000Z,12.50
2023-01-27T19:35:21.802Z,3.90
2023-01-27T19:37:50.134Z,5.33
2023-01-27T19:40:19.874Z,5.30
2023-01-27T19:42:47.759Z,4.63
2023-01-27T19:45:16.989Z,3.13
2023-01-27T19:47:46.840Z,7.03
2023-01-27T19:50:21.108Z,2.47
2023-01-27T19:52:49.999Z,1.60
2023-01-27T19:55:18.098Z,2.50
2023-01-27T19:57:46.023Z,2.77
2023-01-27T20:00:23.131Z,2.70
2023-01-27T20:02:51.091Z,1.70
2023-01-27T20:05:18.597Z,4.50
2023-01-27T20:07:46.633Z,3.30
2023-01-27T20:10:21.562Z,2.07
2023-01-27T20:12:57.328Z,2.50
2023-01-27T20:15:26.956Z,5.93
2023-01-27T20:17:55.516Z,4.03
2023-01-27T20:20:24.404Z,6.63
2023-01-27T20:22:53.277Z,6.30
2023-01-27T20:25:23.997Z,3.27
2023-01-27T20:27:54.298Z,2.33
2023-01-27T20:30:26.263Z,9.93
2023-01-27T20:32:56.273Z,2.23
2023-01-27T20:35:24.409Z,4.33
2023-01-27T20:37:53.251Z,2.33
2023-01-27T20:40:24.184Z,1.70
2023-01-27T20:42:52.172Z,7.97
2023-01-27T20:45:20.710Z,6.97
2023-01-27T20:47:52.853Z,2.23
2023-01-27T20:50:21.698Z,3.03
2023-01-27T20:52:49.689Z,2.50
2023-01-27T20:55:19.226Z,12.97
2023-01-27T20:57:48.601Z,9.20
2023-01-27T21:00:17.763Z,6.60
2023-01-27T21:02:45.342Z,4.43
2023-01-27T21:05:13.795Z,4.23
2023-01-27T21:07:42.139Z,18.90
2023-01-27T21:10:10.720Z,9.33
2023-01-27T21:12:38.509Z,5.30
2023-01-27T21:15:09.610Z,6.57
2023-01-27T21:17:37.909Z,11.87
2023-01-27T21:20:06.350Z,5.47
2023-01-27T21:22:34.346Z,4.33
2023-01-27T21:25:01.834Z,3.17
2023-01-27T21:27:30.102Z,1.80
2023-01-27T21:29:57.545Z,1.37
2023-01-27T21:32:26.554Z,3.83
2023-01-27T21:34:54.008Z,2.40
2023-01-27T21:37:21.448Z,4.10
2023-01-27T21:39:48.867Z,4.53
2023-01-27T21:42:33.733Z,3.60
2023-01-27T21:45:13.597Z,12.40
2023-01-27T21:47:44.982Z,7.13
2023-01-27T21:50:14.340Z,11.17
2023-01-27T21:52:44.594Z,5.40
2023-01-27T21:55:14.221Z,2.40
2023-01-27T21:57:42.552Z,3.30
2023-01-27T22:00:13.110Z,2.13
2023-01-27T22:02:42.962Z,2.40
2023-01-27T22:05:11.620Z,2.20
2023-01-27T22:07:40.365Z,2.20
2023-01-27T22:10:09.501Z,2.37
2023-01-27T22:12:39.574Z,2.93
2023-01-27T22:19:08.112Z,2.90
2023-01-27T22:21:35.589Z,2.50
2023-01-27T22:24:03.196Z,2.00
2023-01-27T22:26:30.634Z,1.20
2023-01-27T22:28:58.095Z,1.73
2023-01-27T22:31:25.608Z,2.00
2023-01-27T22:33:54.316Z,1.33
2023-01-27T22:36:23.203Z,2.63
2023-01-27T22:38:50.736Z,4.40
2023-01-27T22:41:18.210Z,4.93
2023-01-27T22:43:45.721Z,1.60
2023-01-27T22:46:13.212Z,2.00
2023-01-27T22:48:40.688Z,8.40
2023-01-27T22:51:08.479Z,7.50
2023-01-27T22:53:37.353Z,9.40
2023-01-27T22:56:05.455Z,4.63
2023-01-27T22:58:32.951Z,3.93
2023-01-27T23:01:00.445Z,1.20
2023-01-27T23:03:28.187Z,1.20
2023-01-27T23:05:55.658Z,1.23
2023-01-27T23:08:23.110Z,1.10
2023-01-27T23:10:51.869Z,1.23
2023-01-27T23:13:20.543Z,1.47
2023-01-27T23:15:48.434Z,2.10
2023-01-27T23:18:15.884Z,1.60
2023-01-27T23:20:44.308Z,1.97
2023-01-27T23:23:12.263Z,0.97
2023-01-27T23:25:44.477Z,4.00
2023-01-27T23:28:14.766Z,1.13
2023-01-27T23:30:43.824Z,1.40
2023-01-27T23:33:12.348Z,1.00
2023-01-27T23:35:40.447Z,1.50
2023-01-27T23:38:19.347Z,1.60
2023-01-27T23:40:54.262Z,1.30
2023-01-27T23:43:23.850Z,4.70
2023-01-27T23:45:52.893Z,2.60
2023-01-27T23:48:20.973Z,1.27
2023-01-27T23:50:48.821Z,2.63
2023-01-27T23:53:17.315Z,1.00
2023-01-27T23:55:44.900Z,3.90
2023-01-27T23:58:12.601Z,5.30
